Anchorage, Utah
Current Conditions -  °F | °C
As of 10:58 AM on Saturday 25 Oct 2014 (Local Time) from KHIF Reporting Station
Clear Clear  
Wind Chill: 69°   Ceiling: Unl
Heat Index: 69°   Visibility: 10mi
Dew Point: 34°   Wind: 14mph
Humidity: 27%   Direction: 190°S
Pressure: 30.09"   Gusts: NA
Location:  41.123°N, 112.063°W
Report Text: KHIF 251658Z AUTO 19012KT 10SM CLR 21/01 A3009 RMK AO2 SLP141 T02070010
Loading
Personal Weather Stations






























Interactive Weather Map New forecast layout! Learn more

10-Day Weather Forecast

Advertisements
Track Severe Weather on mobile